sensor_id;sensor_type;location;lat;lon;timestamp;pressure;altitude;pressure_sealevel;temperature;humidity
70730;BME280;58315;53.336;55.932;2022-08-14T00:00:39;100056.84;;;21.16;53.79
70730;BME280;58315;53.336;55.932;2022-08-14T00:03:05;100059.09;;;21.12;53.53
70730;BME280;58315;53.336;55.932;2022-08-14T00:05:31;100060.13;;;21.11;53.33
70730;BME280;58315;53.336;55.932;2022-08-14T00:07:57;100055.78;;;21.10;53.37
70730;BME280;58315;53.336;55.932;2022-08-14T00:10:23;100060.31;;;21.10;53.39
70730;BME280;58315;53.336;55.932;2022-08-14T00:12:53;100054.09;;;21.09;53.25
70730;BME280;58315;53.336;55.932;2022-08-14T00:15:24;100058.25;;;21.12;53.00
70730;BME280;58315;53.336;55.932;2022-08-14T00:17:52;100055.34;;;21.07;53.30
70730;BME280;58315;53.336;55.932;2022-08-14T00:20:20;100071.78;;;20.97;53.43
70730;BME280;58315;53.336;55.932;2022-08-14T00:22:46;100066.19;;;20.92;53.67
70730;BME280;58315;53.336;55.932;2022-08-14T00:25:12;100069.25;;;20.89;53.68
70730;BME280;58315;53.336;55.932;2022-08-14T00:27:38;100066.19;;;20.92;53.47
70730;BME280;58315;53.336;55.932;2022-08-14T00:30:06;100056.69;;;20.96;53.86
70730;BME280;58315;53.336;55.932;2022-08-14T00:32:34;100069.88;;;20.91;53.80
70730;BME280;58315;53.336;55.932;2022-08-14T00:35:00;100062.41;;;20.86;54.07
70730;BME280;58315;53.336;55.932;2022-08-14T00:37:29;100068.34;;;20.82;53.95
70730;BME280;58315;53.336;55.932;2022-08-14T00:39:55;100065.41;;;20.77;54.05
70730;BME280;58315;53.336;55.932;2022-08-14T00:42:22;100067.91;;;20.78;54.39
70730;BME280;58315;53.336;55.932;2022-08-14T00:44:49;100068.09;;;20.77;54.26
70730;BME280;58315;53.336;55.932;2022-08-14T00:47:16;100062.72;;;20.77;54.39
70730;BME280;58315;53.336;55.932;2022-08-14T00:49:44;100076.41;;;20.82;54.31
70730;BME280;58315;53.336;55.932;2022-08-14T00:52:12;100076.94;;;20.99;53.90
70730;BME280;58315;53.336;55.932;2022-08-14T00:54:38;100073.50;;;21.05;53.86
70730;BME280;58315;53.336;55.932;2022-08-14T00:57:05;100078.28;;;21.09;54.19
70730;BME280;58315;53.336;55.932;2022-08-14T00:59:31;100076.25;;;21.11;54.64
70730;BME280;58315;53.336;55.932;2022-08-14T01:01:59;100077.91;;;21.12;54.27
70730;BME280;58315;53.336;55.932;2022-08-14T01:04:26;100080.56;;;21.12;54.42
70730;BME280;58315;53.336;55.932;2022-08-14T01:07:01;100079.59;;;21.20;54.16
70730;BME280;58315;53.336;55.932;2022-08-14T01:09:27;100082.88;;;21.15;54.07
70730;BME280;58315;53.336;55.932;2022-08-14T01:11:54;100082.38;;;21.05;54.05
70730;BME280;58315;53.336;55.932;2022-08-14T01:14:22;100086.09;;;21.04;53.80
70730;BME280;58315;53.336;55.932;2022-08-14T01:16:48;100083.25;;;21.12;53.31
70730;BME280;58315;53.336;55.932;2022-08-14T01:19:14;100087.63;;;21.13;53.00
70730;BME280;58315;53.336;55.932;2022-08-14T01:21:59;100085.72;;;21.07;52.94
70730;BME280;58315;53.336;55.932;2022-08-14T01:24:25;100092.31;;;21.05;52.79
70730;BME280;58315;53.336;55.932;2022-08-14T01:26:51;100097.22;;;21.01;52.91
70730;BME280;58315;53.336;55.932;2022-08-14T01:29:18;100091.03;;;21.01;52.92
70730;BME280;58315;53.336;55.932;2022-08-14T01:31:45;100095.56;;;21.00;53.06
70730;BME280;58315;53.336;55.932;2022-08-14T01:34:18;100101.84;;;20.86;53.43
70730;BME280;58315;53.336;55.932;2022-08-14T01:36:46;100101.66;;;20.87;53.56
70730;BME280;58315;53.336;55.932;2022-08-14T01:39:14;100103.34;;;20.88;53.76
70730;BME280;58315;53.336;55.932;2022-08-14T01:41:45;100105.66;;;20.98;53.54
70730;BME280;58315;53.336;55.932;2022-08-14T01:44:17;100105.28;;;21.01;53.34
70730;BME280;58315;53.336;55.932;2022-08-14T01:46:43;100108.81;;;21.02;53.73
70730;BME280;58315;53.336;55.932;2022-08-14T01:49:13;100109.38;;;20.97;53.92
70730;BME280;58315;53.336;55.932;2022-08-14T01:51:42;100113.50;;;20.93;53.60
70730;BME280;58315;53.336;55.932;2022-08-14T01:54:12;100110.41;;;20.96;54.04
70730;BME280;58315;53.336;55.932;2022-08-14T01:56:39;100115.22;;;21.01;53.79
70730;BME280;58315;53.336;55.932;2022-08-14T02:01:42;100118.56;;;21.09;53.61
70730;BME280;58315;53.336;55.932;2022-08-14T02:04:09;100119.63;;;21.08;53.39
70730;BME280;58315;53.336;55.932;2022-08-14T02:06:36;100114.28;;;21.15;53.34
70730;BME280;58315;53.336;55.932;2022-08-14T02:09:07;100132.28;;;21.36;53.51
70730;BME280;58315;53.336;55.932;2022-08-14T02:11:34;100123.19;;;21.37;53.26
70730;BME280;58315;53.336;55.932;2022-08-14T02:14:02;100129.06;;;21.47;52.99
70730;BME280;58315;53.336;55.932;2022-08-14T02:16:32;100128.69;;;21.57;53.02
70730;BME280;58315;53.336;55.932;2022-08-14T02:19:05;100130.59;;;21.63;52.90
70730;BME280;58315;53.336;55.932;2022-08-14T02:21:31;100123.19;;;21.72;53.68
70730;BME280;58315;53.336;55.932;2022-08-14T02:23:59;100126.91;;;21.71;53.68
70730;BME280;58315;53.336;55.932;2022-08-14T02:26:34;100125.56;;;21.88;52.95
70730;BME280;58315;53.336;55.932;2022-08-14T02:29:06;100123.50;;;21.90;52.86
70730;BME280;58315;53.336;55.932;2022-08-14T02:31:35;100131.38;;;21.91;53.22
70730;BME280;58315;53.336;55.932;2022-08-14T02:34:18;100131.03;;;22.01;52.91
70730;BME280;58315;53.336;55.932;2022-08-14T02:36:47;100127.31;;;22.02;52.96
70730;BME280;58315;53.336;55.932;2022-08-14T02:39:14;100122.78;;;22.09;52.83
70730;BME280;58315;53.336;55.932;2022-08-14T02:41:40;100132.56;;;22.17;52.78
70730;BME280;58315;53.336;55.932;2022-08-14T02:44:08;100137.59;;;22.27;52.77
70730;BME280;58315;53.336;55.932;2022-08-14T02:46:39;100139.69;;;22.38;52.70
70730;BME280;58315;53.336;55.932;2022-08-14T02:49:09;100138.25;;;22.42;52.36
70730;BME280;58315;53.336;55.932;2022-08-14T02:51:36;100133.28;;;22.52;52.65
70730;BME280;58315;53.336;55.932;2022-08-14T02:54:04;100139.97;;;22.63;52.55
70730;BME280;58315;53.336;55.932;2022-08-14T02:56:32;100141.81;;;22.62;52.30
70730;BME280;58315;53.336;55.932;2022-08-14T02:59:00;100137.84;;;22.52;52.29
70730;BME280;58315;53.336;55.932;2022-08-14T03:01:27;100134.75;;;22.55;52.61
70730;BME280;58315;53.336;55.932;2022-08-14T03:03:53;100147.03;;;22.64;51.96
70730;BME280;58315;53.336;55.932;2022-08-14T03:06:21;100150.97;;;22.68;51.91
70730;BME280;58315;53.336;55.932;2022-08-14T03:08:53;100146.47;;;22.95;52.09
70730;BME280;58315;53.336;55.932;2022-08-14T03:11:20;100144.41;;;22.97;51.75
70730;BME280;58315;53.336;55.932;2022-08-14T03:13:49;100153.34;;;23.18;51.76
70730;BME280;58315;53.336;55.932;2022-08-14T03:16:21;100149.19;;;23.35;51.33
70730;BME280;58315;53.336;55.932;2022-08-14T03:18:49;100157.28;;;23.35;51.02
70730;BME280;58315;53.336;55.932;2022-08-14T03:21:20;100149.81;;;23.44;51.29
70730;BME280;58315;53.336;55.932;2022-08-14T03:23:47;100152.91;;;23.61;50.91
70730;BME280;58315;53.336;55.932;2022-08-14T03:26:16;100157.88;;;23.57;50.80
70730;BME280;58315;53.336;55.932;2022-08-14T03:28:45;100157.41;;;24.00;50.80
70730;BME280;58315;53.336;55.932;2022-08-14T03:31:11;100154.44;;;24.73;50.21
70730;BME280;58315;53.336;55.932;2022-08-14T03:33:38;100157.78;;;25.75;48.37
70730;BME280;58315;53.336;55.932;2022-08-14T03:36:08;100164.53;;;27.18;45.88
70730;BME280;58315;53.336;55.932;2022-08-14T03:38:38;100160.72;;;28.65;44.12
70730;BME280;58315;53.336;55.932;2022-08-14T03:41:12;100153.97;;;29.81;40.76
70730;BME280;58315;53.336;55.932;2022-08-14T03:43:43;100161.13;;;30.74;38.65
70730;BME280;58315;53.336;55.932;2022-08-14T03:46:10;100159.13;;;31.61;37.88
70730;BME280;58315;53.336;55.932;2022-08-14T03:48:39;100158.38;;;32.24;37.89
70730;BME280;58315;53.336;55.932;2022-08-14T03:51:08;100161.31;;;33.05;34.69
70730;BME280;58315;53.336;55.932;2022-08-14T03:53:35;100159.13;;;33.43;34.33
70730;BME280;58315;53.336;55.932;2022-08-14T03:56:08;100151.63;;;33.90;34.57
70730;BME280;58315;53.336;55.932;2022-08-14T03:58:42;100149.22;;;34.53;33.70
70730;BME280;58315;53.336;55.932;2022-08-14T04:01:14;100150.75;;;35.09;33.17
70730;BME280;58315;53.336;55.932;2022-08-14T04:03:41;100147.09;;;35.53;31.77
70730;BME280;58315;53.336;55.932;2022-08-14T04:06:10;100152.28;;;36.07;31.18
70730;BME280;58315;53.336;55.932;2022-08-14T04:08:40;100148.22;;;36.42;30.84
70730;BME280;58315;53.336;55.932;2022-08-14T04:11:06;100147.13;;;36.81;30.71
70730;BME280;58315;53.336;55.932;2022-08-14T04:13:35;100143.91;;;37.45;30.20
70730;BME280;58315;53.336;55.932;2022-08-14T04:16:04;100143.53;;;37.93;29.63
70730;BME280;58315;53.336;55.932;2022-08-14T04:18:31;100141.03;;;38.32;29.08
70730;BME280;58315;53.336;55.932;2022-08-14T04:20:58;100136.75;;;38.40;27.74
70730;BME280;58315;53.336;55.932;2022-08-14T04:23:24;100140.09;;;38.51;28.48
70730;BME280;58315;53.336;55.932;2022-08-14T04:25:51;100146.34;;;38.43;28.11
70730;BME280;58315;53.336;55.932;2022-08-14T04:28:20;100149.22;;;38.24;28.44
70730;BME280;58315;53.336;55.932;2022-08-14T04:30:46;100143.34;;;37.89;28.07
70730;BME280;58315;53.336;55.932;2022-08-14T04:33:13;100137.75;;;37.48;28.35
70730;BME280;58315;53.336;55.932;2022-08-14T04:35:40;100137.13;;;36.85;28.87
70730;BME280;58315;53.336;55.932;2022-08-14T04:38:07;100139.88;;;36.10;30.26
70730;BME280;58315;53.336;55.932;2022-08-14T04:40:51;100141.03;;;35.56;30.89
70730;BME280;58315;53.336;55.932;2022-08-14T04:43:37;100141.13;;;34.72;31.33
70730;BME280;58315;53.336;55.932;2022-08-14T04:46:23;100137.13;;;33.94;32.57
70730;BME280;58315;53.336;55.932;2022-08-14T04:48:50;100136.94;;;33.45;33.21
70730;BME280;58315;53.336;55.932;2022-08-14T04:51:19;100132.84;;;33.27;33.67
70730;BME280;58315;53.336;55.932;2022-08-14T04:53:49;100139.44;;;33.10;34.00
70730;BME280;58315;53.336;55.932;2022-08-14T04:56:16;100135.84;;;32.74;34.86
70730;BME280;58315;53.336;55.932;2022-08-14T04:58:42;100137.97;;;32.47;34.57
70730;BME280;58315;53.336;55.932;2022-08-14T05:01:09;100134.84;;;32.17;35.09
70730;BME280;58315;53.336;55.932;2022-08-14T05:03:37;100136.50;;;32.24;36.03
70730;BME280;58315;53.336;55.932;2022-08-14T05:06:06;100129.41;;;32.23;35.48
70730;BME280;58315;53.336;55.932;2022-08-14T05:08:33;100136.06;;;32.57;35.63
70730;BME280;58315;53.336;55.932;2022-08-14T05:11:00;100140.44;;;32.53;35.42
70730;BME280;58315;53.336;55.932;2022-08-14T05:13:28;100134.34;;;32.36;35.11
70730;BME280;58315;53.336;55.932;2022-08-14T05:15:57;100135.16;;;32.31;35.94
70730;BME280;58315;53.336;55.932;2022-08-14T05:18:26;100136.34;;;32.51;35.34
70730;BME280;58315;53.336;55.932;2022-08-14T05:20:54;100139.41;;;33.31;34.83
70730;BME280;58315;53.336;55.932;2022-08-14T05:23:25;100133.09;;;33.56;33.86
70730;BME280;58315;53.336;55.932;2022-08-14T05:25:54;100131.34;;;34.06;33.63
70730;BME280;58315;53.336;55.932;2022-08-14T05:28:25;100129.00;;;34.33;32.94
70730;BME280;58315;53.336;55.932;2022-08-14T05:30:53;100134.25;;;35.14;32.41
70730;BME280;58315;53.336;55.932;2022-08-14T05:33:22;100136.03;;;34.94;32.47
70730;BME280;58315;53.336;55.932;2022-08-14T05:35:49;100131.94;;;35.79;31.03
70730;BME280;58315;53.336;55.932;2022-08-14T05:38:18;100134.41;;;35.57;30.71
70730;BME280;58315;53.336;55.932;2022-08-14T05:40:45;100123.84;;;35.69;31.27
70730;BME280;58315;53.336;55.932;2022-08-14T05:43:13;100135.50;;;36.46;30.81
70730;BME280;58315;53.336;55.932;2022-08-14T05:45:39;100139.28;;;37.07;29.75
70730;BME280;58315;53.336;55.932;2022-08-14T05:48:06;100142.03;;;36.88;29.67
70730;BME280;58315;53.336;55.932;2022-08-14T05:50:47;100137.16;;;37.51;29.14
70730;BME280;58315;53.336;55.932;2022-08-14T05:53:13;100136.56;;;38.37;28.89
70730;BME280;58315;53.336;55.932;2022-08-14T05:55:40;100141.75;;;39.19;27.69
70730;BME280;58315;53.336;55.932;2022-08-14T05:58:06;100135.97;;;39.61;26.75
70730;BME280;58315;53.336;55.932;2022-08-14T06:00:36;100142.25;;;39.84;25.69
70730;BME280;58315;53.336;55.932;2022-08-14T06:03:04;100141.44;;;39.83;25.58
70730;BME280;58315;53.336;55.932;2022-08-14T06:05:31;100141.72;;;40.21;26.14
70730;BME280;58315;53.336;55.932;2022-08-14T06:07:58;100143.50;;;40.26;25.64
70730;BME280;58315;53.336;55.932;2022-08-14T06:10:27;100134.22;;;40.22;25.53
70730;BME280;58315;53.336;55.932;2022-08-14T06:12:54;100139.94;;;40.25;25.32
70730;BME280;58315;53.336;55.932;2022-08-14T06:15:23;100138.41;;;40.02;25.56
70730;BME280;58315;53.336;55.932;2022-08-14T06:17:56;100137.06;;;39.51;25.36
70730;BME280;58315;53.336;55.932;2022-08-14T06:20:22;100124.34;;;38.74;25.51
70730;BME280;58315;53.336;55.932;2022-08-14T06:22:49;100127.97;;;37.69;27.11
70730;BME280;58315;53.336;55.932;2022-08-14T06:25:15;100126.22;;;36.80;27.38
70730;BME280;58315;53.336;55.932;2022-08-14T06:27:45;100119.13;;;35.93;28.52
70730;BME280;58315;53.336;55.932;2022-08-14T06:30:16;100123.81;;;34.76;29.10
70730;BME280;58315;53.336;55.932;2022-08-14T06:32:43;100124.25;;;33.84;30.25
70730;BME280;58315;53.336;55.932;2022-08-14T06:35:10;100115.63;;;33.47;30.89
70730;BME280;58315;53.336;55.932;2022-08-14T06:37:45;100121.38;;;33.25;30.69
70730;BME280;58315;53.336;55.932;2022-08-14T06:40:13;100122.16;;;32.79;30.48
70730;BME280;58315;53.336;55.932;2022-08-14T06:42:40;100125.13;;;32.47;30.78
70730;BME280;58315;53.336;55.932;2022-08-14T06:45:07;100132.75;;;32.40;30.21
70730;BME280;58315;53.336;55.932;2022-08-14T06:47:35;100120.44;;;31.75;30.58
70730;BME280;58315;53.336;55.932;2022-08-14T06:50:06;100123.03;;;31.49;30.80
70730;BME280;58315;53.336;55.932;2022-08-14T06:52:33;100109.28;;;31.34;30.73
70730;BME280;58315;53.336;55.932;2022-08-14T06:54:59;100120.06;;;31.61;30.62
70730;BME280;58315;53.336;55.932;2022-08-14T06:57:43;100113.88;;;31.76;29.73
70730;BME280;58315;53.336;55.932;2022-08-14T07:00:16;100109.66;;;31.53;29.39
70730;BME280;58315;53.336;55.932;2022-08-14T07:02:42;100125.19;;;31.15;29.96
70730;BME280;58315;53.336;55.932;2022-08-14T07:05:27;100115.69;;;31.22;30.30
70730;BME280;58315;53.336;55.932;2022-08-14T07:10:47;100105.34;;;31.25;30.53
70730;BME280;58315;53.336;55.932;2022-08-14T07:13:15;100105.88;;;31.21;29.91
70730;BME280;58315;53.336;55.932;2022-08-14T07:15:47;100096.97;;;30.99;29.90
70730;BME280;58315;53.336;55.932;2022-08-14T07:18:34;100088.66;;;31.21;29.29
70730;BME280;58315;53.336;55.932;2022-08-14T07:21:04;100095.44;;;31.13;29.69
70730;BME280;58315;53.336;55.932;2022-08-14T07:23:31;100102.03;;;31.22;29.76
70730;BME280;58315;53.336;55.932;2022-08-14T07:25:59;100096.63;;;30.90;30.22
70730;BME280;58315;53.336;55.932;2022-08-14T07:28:43;100099.72;;;30.72;30.84
70730;BME280;58315;53.336;55.932;2022-08-14T07:31:38;100091.25;;;30.73;30.67
70730;BME280;58315;53.336;55.932;2022-08-14T07:34:11;100097.28;;;31.03;30.67
70730;BME280;58315;53.336;55.932;2022-08-14T07:36:40;100092.03;;;30.96;29.99
70730;BME280;58315;53.336;55.932;2022-08-14T07:39:07;100099.25;;;31.12;30.72
70730;BME280;58315;53.336;55.932;2022-08-14T07:41:33;100088.88;;;31.09;30.17
70730;BME280;58315;53.336;55.932;2022-08-14T07:44:02;100095.97;;;31.10;30.34
70730;BME280;58315;53.336;55.932;2022-08-14T07:46:28;100104.72;;;31.12;30.11
70730;BME280;58315;53.336;55.932;2022-08-14T07:48:54;100103.19;;;30.67;30.38
70730;BME280;58315;53.336;55.932;2022-08-14T07:51:21;100095.97;;;30.51;30.72
70730;BME280;58315;53.336;55.932;2022-08-14T07:53:47;100083.75;;;30.59;30.91
70730;BME280;58315;53.336;55.932;2022-08-14T07:56:13;100083.75;;;30.86;30.94
70730;BME280;58315;53.336;55.932;2022-08-14T07:58:39;100086.53;;;30.91;30.75
70730;BME280;58315;53.336;55.932;2022-08-14T08:01:05;100088.66;;;30.30;31.20
70730;BME280;58315;53.336;55.932;2022-08-14T08:03:33;100088.19;;;30.16;31.31
70730;BME280;58315;53.336;55.932;2022-08-14T08:06:00;100082.25;;;30.19;31.66
70730;BME280;58315;53.336;55.932;2022-08-14T08:08:28;100076.56;;;30.20;31.42
70730;BME280;58315;53.336;55.932;2022-08-14T08:10:55;100074.56;;;30.38;32.06
70730;BME280;58315;53.336;55.932;2022-08-14T08:13:22;100081.06;;;30.10;31.20
70730;BME280;58315;53.336;55.932;2022-08-14T08:15:51;100069.53;;;30.02;31.35
70730;BME280;58315;53.336;55.932;2022-08-14T08:18:19;100064.53;;;30.43;31.09
70730;BME280;58315;53.336;55.932;2022-08-14T08:20:47;100068.50;;;30.31;31.39
70730;BME280;58315;53.336;55.932;2022-08-14T08:23:15;100098.06;;;30.44;31.38
70730;BME280;58315;53.336;55.932;2022-08-14T08:25:44;100064.69;;;30.32;31.38
70730;BME280;58315;53.336;55.932;2022-08-14T08:28:19;100070.47;;;30.67;31.65
70730;BME280;58315;53.336;55.932;2022-08-14T08:30:52;100065.84;;;30.95;30.50
70730;BME280;58315;53.336;55.932;2022-08-14T08:33:20;100073.25;;;30.72;31.45
70730;BME280;58315;53.336;55.932;2022-08-14T08:35:47;100069.78;;;30.77;31.57
70730;BME280;58315;53.336;55.932;2022-08-14T08:38:15;100069.25;;;30.80;30.73
70730;BME280;58315;53.336;55.932;2022-08-14T08:40:49;100061.69;;;30.87;31.18
70730;BME280;58315;53.336;55.932;2022-08-14T08:46:01;100065.41;;;31.13;31.23
70730;BME280;58315;53.336;55.932;2022-08-14T08:48:30;100074.25;;;30.61;31.51
70730;BME280;58315;53.336;55.932;2022-08-14T08:50:59;100071.16;;;30.03;31.85
70730;BME280;58315;53.336;55.932;2022-08-14T08:53:33;100073.78;;;29.71;32.19
70730;BME280;58315;53.336;55.932;2022-08-14T08:56:02;100061.56;;;29.57;32.41
70730;BME280;58315;53.336;55.932;2022-08-14T08:58:29;100066.38;;;29.89;32.35
70730;BME280;58315;53.336;55.932;2022-08-14T09:00:57;100068.41;;;30.20;32.12
70730;BME280;58315;53.336;55.932;2022-08-14T09:03:25;100058.97;;;30.33;31.53
70730;BME280;58315;53.336;55.932;2022-08-14T09:05:59;100057.75;;;30.46;31.73
70730;BME280;58315;53.336;55.932;2022-08-14T09:08:30;100064.44;;;30.33;31.73
70730;BME280;58315;53.336;55.932;2022-08-14T09:10:58;100062.72;;;30.05;31.99
70730;BME280;58315;53.336;55.932;2022-08-14T09:13:25;100055.91;;;30.24;31.95
70730;BME280;58315;53.336;55.932;2022-08-14T09:15:53;100059.41;;;30.47;31.92
70730;BME280;58315;53.336;55.932;2022-08-14T09:18:21;100067.38;;;30.54;31.51
70730;BME280;58315;53.336;55.932;2022-08-14T09:20:51;100060.69;;;30.71;31.66
70730;BME280;58315;53.336;55.932;2022-08-14T09:23:18;100061.47;;;30.67;31.08
70730;BME280;58315;53.336;55.932;2022-08-14T09:25:47;100069.78;;;30.50;31.47
70730;BME280;58315;53.336;55.932;2022-08-14T09:28:15;100064.97;;;30.62;31.21
70730;BME280;58315;53.336;55.932;2022-08-14T09:30:46;100066.06;;;30.88;31.14
70730;BME280;58315;53.336;55.932;2022-08-14T09:33:25;100064.63;;;30.81;30.53
70730;BME280;58315;53.336;55.932;2022-08-14T09:38:32;100071.78;;;30.87;30.52
70730;BME280;58315;53.336;55.932;2022-08-14T09:46:52;100045.31;;;30.28;31.92
70730;BME280;58315;53.336;55.932;2022-08-14T09:49:29;100050.94;;;30.48;31.33
70730;BME280;58315;53.336;55.932;2022-08-14T09:52:08;100066.59;;;30.58;31.24
70730;BME280;58315;53.336;55.932;2022-08-14T09:54:41;100066.28;;;30.55;31.55
70730;BME280;58315;53.336;55.932;2022-08-14T09:57:09;100054.50;;;30.49;30.96
70730;BME280;58315;53.336;55.932;2022-08-14T09:59:43;100059.81;;;30.61;30.90
70730;BME280;58315;53.336;55.932;2022-08-14T10:02:37;100051.53;;;30.50;30.88
70730;BME280;58315;53.336;55.932;2022-08-14T10:05:10;100066.34;;;30.33;30.76
70730;BME280;58315;53.336;55.932;2022-08-14T10:07:48;100053.38;;;29.96;30.77
70730;BME280;58315;53.336;55.932;2022-08-14T10:10:38;100042.22;;;29.75;31.27
70730;BME280;58315;53.336;55.932;2022-08-14T10:13:07;100042.81;;;29.77;31.50
70730;BME280;58315;53.336;55.932;2022-08-14T10:15:44;100037.03;;;29.96;31.53
70730;BME280;58315;53.336;55.932;2022-08-14T10:18:13;100043.31;;;29.74;31.25
70730;BME280;58315;53.336;55.932;2022-08-14T10:20:57;100046.84;;;29.75;31.87
70730;BME280;58315;53.336;55.932;2022-08-14T10:23:26;100037.00;;;29.52;32.02
70730;BME280;58315;53.336;55.932;2022-08-14T10:26:04;100043.25;;;29.30;32.22
70730;BME280;58315;53.336;55.932;2022-08-14T10:28:42;100039.31;;;29.60;32.13
70730;BME280;58315;53.336;55.932;2022-08-14T10:34:06;100032.31;;;30.13;31.61
70730;BME280;58315;53.336;55.932;2022-08-14T10:36:38;100032.28;;;29.86;31.23
70730;BME280;58315;53.336;55.932;2022-08-14T10:39:07;100032.13;;;29.54;31.51
70730;BME280;58315;53.336;55.932;2022-08-14T10:41:41;100046.97;;;29.24;31.72
70730;BME280;58315;53.336;55.932;2022-08-14T10:44:16;100038.72;;;29.19;31.98
70730;BME280;58315;53.336;55.932;2022-08-14T10:46:51;100033.69;;;29.28;31.92
70730;BME280;58315;53.336;55.932;2022-08-14T10:49:42;100031.47;;;29.47;31.91
70730;BME280;58315;53.336;55.932;2022-08-14T10:52:27;100046.06;;;29.58;31.15
70730;BME280;58315;53.336;55.932;2022-08-14T10:55:17;100033.19;;;29.31;31.19
70730;BME280;58315;53.336;55.932;2022-08-14T10:57:54;100030.28;;;29.38;31.23
70730;BME280;58315;53.336;55.932;2022-08-14T11:01:41;100029.72;;;29.58;30.92
70730;BME280;58315;53.336;55.932;2022-08-14T11:04:23;100027.97;;;29.68;30.67
70730;BME280;58315;53.336;55.932;2022-08-14T11:06:56;100023.03;;;29.65;30.76
70730;BME280;58315;53.336;55.932;2022-08-14T11:09:23;100018.16;;;29.67;30.98
70730;BME280;58315;53.336;55.932;2022-08-14T11:11:54;100018.63;;;29.81;30.75
70730;BME280;58315;53.336;55.932;2022-08-14T11:14:29;100022.63;;;29.73;30.62
70730;BME280;58315;53.336;55.932;2022-08-14T11:17:26;100011.00;;;29.83;30.62
70730;BME280;58315;53.336;55.932;2022-08-14T11:21:05;100019.38;;;29.76;30.29
70730;BME280;58315;53.336;55.932;2022-08-14T11:23:37;100019.97;;;29.84;30.64
70730;BME280;58315;53.336;55.932;2022-08-14T11:26:04;100006.38;;;29.84;30.02
70730;BME280;58315;53.336;55.932;2022-08-14T11:28:33;100010.19;;;29.83;30.11
70730;BME280;58315;53.336;55.932;2022-08-14T11:31:09;100003.72;;;29.89;30.09
70730;BME280;58315;53.336;55.932;2022-08-14T11:33:40;100004.69;;;30.04;29.36
70730;BME280;58315;53.336;55.932;2022-08-14T11:36:09;100010.34;;;29.98;30.05
70730;BME280;58315;53.336;55.932;2022-08-14T11:38:43;100005.59;;;30.10;29.50
70730;BME280;58315;53.336;55.932;2022-08-14T11:41:13;100001.16;;;30.04;29.45
70730;BME280;58315;53.336;55.932;2022-08-14T11:43:42;99999.00;;;30.06;29.66
70730;BME280;58315;53.336;55.932;2022-08-14T11:46:09;99997.03;;;30.01;29.64
70730;BME280;58315;53.336;55.932;2022-08-14T11:48:52;100002.25;;;30.03;29.70
70730;BME280;58315;53.336;55.932;2022-08-14T11:51:21;99996.72;;;29.98;29.75
70730;BME280;58315;53.336;55.932;2022-08-14T11:56:18;100005.13;;;29.69;30.37
70730;BME280;58315;53.336;55.932;2022-08-14T11:58:52;100006.06;;;29.80;30.57
70730;BME280;58315;53.336;55.932;2022-08-14T12:01:26;100000.19;;;29.88;30.31
70730;BME280;58315;53.336;55.932;2022-08-14T12:03:54;99996.81;;;29.81;30.13
70730;BME280;58315;53.336;55.932;2022-08-14T12:06:24;99991.19;;;29.88;30.37
70730;BME280;58315;53.336;55.932;2022-08-14T12:08:51;99991.19;;;29.88;30.19
70730;BME280;58315;53.336;55.932;2022-08-14T12:11:19;99994.56;;;30.00;29.88
70730;BME280;58315;53.336;55.932;2022-08-14T12:13:46;99989.63;;;29.97;29.80
70730;BME280;58315;53.336;55.932;2022-08-14T12:16:13;99999.91;;;29.90;29.72
70730;BME280;58315;53.336;55.932;2022-08-14T12:18:46;99990.25;;;30.04;29.68
70730;BME280;58315;53.336;55.932;2022-08-14T12:21:18;99991.53;;;29.96;29.64
70730;BME280;58315;53.336;55.932;2022-08-14T12:23:47;99994.56;;;30.00;29.80
70730;BME280;58315;53.336;55.932;2022-08-14T12:26:16;99992.34;;;29.97;30.14
70730;BME280;58315;53.336;55.932;2022-08-14T12:28:43;99990.75;;;30.01;30.00
70730;BME280;58315;53.336;55.932;2022-08-14T12:31:18;99989.28;;;30.15;29.62
70730;BME280;58315;53.336;55.932;2022-08-14T12:34:01;99993.03;;;30.09;29.32
70730;BME280;58315;53.336;55.932;2022-08-14T12:36:28;99994.47;;;29.90;29.83
70730;BME280;58315;53.336;55.932;2022-08-14T12:38:59;99984.19;;;29.97;29.70
70730;BME280;58315;53.336;55.932;2022-08-14T12:41:28;99988.19;;;29.89;29.47
70730;BME280;58315;53.336;55.932;2022-08-14T12:44:04;99991.88;;;29.78;29.88
70730;BME280;58315;53.336;55.932;2022-08-14T12:46:39;99988.84;;;29.74;29.81
70730;BME280;58315;53.336;55.932;2022-08-14T12:49:11;99991.25;;;29.71;29.89
70730;BME280;58315;53.336;55.932;2022-08-14T12:51:39;99991.44;;;29.64;30.35
70730;BME280;58315;53.336;55.932;2022-08-14T12:54:13;99987.44;;;29.72;30.42
70730;BME280;58315;53.336;55.932;2022-08-14T12:56:40;99994.75;;;29.66;30.46
70730;BME280;58315;53.336;55.932;2022-08-14T12:59:13;99986.44;;;29.78;30.00
70730;BME280;58315;53.336;55.932;2022-08-14T13:01:44;99990.56;;;29.81;30.05
70730;BME280;58315;53.336;55.932;2022-08-14T13:04:15;99988.28;;;29.72;30.13
70730;BME280;58315;53.336;55.932;2022-08-14T13:06:46;99986.00;;;29.64;30.22
70730;BME280;58315;53.336;55.932;2022-08-14T13:09:14;99990.75;;;29.74;30.48
70730;BME280;58315;53.336;55.932;2022-08-14T13:11:45;99986.00;;;29.64;30.54
70730;BME280;58315;53.336;55.932;2022-08-14T13:14:21;99982.97;;;29.61;30.49
70730;BME280;58315;53.336;55.932;2022-08-14T13:16:55;99983.25;;;29.42;30.96
70730;BME280;58315;53.336;55.932;2022-08-14T13:19:23;99977.34;;;29.50;30.74